Time;durP1;ratioP1;P1;durP2;ratioP2;P2;SDS_P1;SDS_P2;PMS_P1;PMS_P2;Temp;Humidity;BMP_temperature;BMP_pressure;BME280_temperature;BME280_humidity;BME280_pressure;Samples;Min_cycle;Max_cycle;Signal;HPM_P1;HPM_P2
2021/08/08 00:00:05;;;;;;;10.10;5.50;;;;;;;15.38;90.30;100399.32;1750078;79;22152;-72
2021/08/08 00:02:37;;;;;;;8.73;5.60;;;;;;;15.37;90.40;100399.08;1795599;78;22056;-71
2021/08/08 00:05:08;;;;;;;7.17;5.40;;;;;;;15.34;90.37;100405.84;1800747;78;20967;-73
2021/08/08 00:07:35;;;;;;;8.10;5.65;;;;;;;15.29;90.37;100403.76;1800354;78;21745;-72
2021/08/08 00:10:01;;;;;;;7.33;5.77;;;;;;;15.24;90.37;100401.95;1774075;79;20994;-72
2021/08/08 00:12:30;;;;;;;9.17;6.70;;;;;;;15.15;90.81;100401.80;1801096;78;22237;-73
2021/08/08 00:14:56;;;;;;;8.97;7.17;;;;;;;15.15;90.81;100401.80;1797252;78;21582;-74
2021/08/08 00:17:22;;;;;;;7.80;6.83;;;;;;;15.17;91.50;100409.59;1802653;78;21586;-73
2021/08/08 00:19:49;;;;;;;10.80;8.03;;;;;;;15.17;92.27;100401.52;1803057;78;22419;-72
2021/08/08 00:22:16;;;;;;;9.93;8.33;;;;;;;15.17;92.27;100401.52;1802365;78;21981;-73
2021/08/08 00:24:43;;;;;;;9.27;8.27;;;;;;;15.22;92.96;100398.20;1799150;78;22163;-75
2021/08/08 00:27:09;;;;;;;9.57;7.33;;;;;;;15.26;92.67;100401.09;1799946;78;21561;-74
2021/08/08 00:29:38;;;;;;;9.00;6.80;;;;;;;15.26;92.67;100403.79;1803380;79;22123;-74
2021/08/08 00:32:05;;;;;;;9.80;6.83;;;;;;;15.25;92.79;100403.00;1760989;79;22355;-74
2021/08/08 00:34:32;;;;;;;9.07;6.20;;;;;;;15.25;92.55;100411.06;1768048;80;21757;-73
2021/08/08 00:36:59;;;;;;;8.90;6.20;;;;;;;15.19;91.83;100415.47;1777756;79;22261;-74
2021/08/08 00:39:28;;;;;;;9.90;6.40;;;;;;;15.19;91.83;100415.47;1803099;78;21671;-75
2021/08/08 00:41:55;;;;;;;9.27;6.30;;;;;;;15.15;92.10;100413.91;1795597;78;21514;-74
2021/08/08 00:44:23;;;;;;;10.83;7.53;;;;;;;15.11;92.06;100412.89;1796242;78;21667;-73
2021/08/08 00:46:50;;;;;;;11.90;7.40;;;;;;;15.09;91.78;100409.69;1802351;78;21691;-74
2021/08/08 00:49:17;;;;;;;9.23;6.73;;;;;;;15.09;91.78;100409.69;1800835;78;21800;-73
2021/08/08 00:51:44;;;;;;;9.90;6.57;;;;;;;15.03;91.82;100416.77;1800635;78;21446;-73
2021/08/08 00:54:11;;;;;;;9.50;6.83;;;;;;;14.97;91.75;100421.41;1793365;78;22051;-74
2021/08/08 00:56:39;;;;;;;12.83;7.60;;;;;;;14.92;91.99;100414.77;1801583;78;21453;-74
2021/08/08 00:59:06;;;;;;;10.17;7.00;;;;;;;14.92;91.99;100414.77;1801749;78;21582;-77
2021/08/08 01:01:44;;;;;;;12.00;7.47;;;;;;;14.91;91.56;100425.28;1800104;79;21562;-74
2021/08/08 01:04:25;;;;;;;11.37;7.20;;;;;;;14.86;92.04;100423.98;1797812;78;21569;-72
2021/08/08 01:07:02;;;;;;;10.68;7.20;;;;;;;14.86;92.04;100423.98;1777734;79;21505;-73
2021/08/08 01:09:37;;;;;;;9.93;6.27;;;;;;;14.86;91.81;100434.74;1771268;78;21077;-72
2021/08/08 01:12:04;;;;;;;8.13;6.15;;;;;;;14.84;91.74;100436.91;1803285;79;21481;-72
2021/08/08 01:14:33;;;;;;;9.20;6.30;;;;;;;14.80;91.55;100439.92;1798919;78;21553;-72
2021/08/08 01:17:04;;;;;;;13.77;7.53;;;;;;;14.74;91.38;100435.97;1801887;78;21460;-72
2021/08/08 01:19:39;;;;;;;12.63;6.97;;;;;;;14.66;91.44;100435.25;1797239;78;21418;-73
2021/08/08 01:22:06;;;;;;;11.43;6.77;;;;;;;14.66;91.47;100437.14;1802707;78;21528;-74
2021/08/08 01:24:33;;;;;;;11.57;6.70;;;;;;;14.63;91.42;100437.16;1801596;79;21438;-72
2021/08/08 01:27:02;;;;;;;11.20;6.63;;;;;;;14.60;91.24;100436.39;1802591;78;21515;-72
2021/08/08 01:29:30;;;;;;;8.73;7.33;;;;;;;14.61;91.69;100442.04;1752914;79;21539;-72
2021/08/08 01:31:58;;;;;;;9.90;7.20;;;;;;;14.61;91.69;100442.04;1794141;78;21385;-74
2021/08/08 01:34:26;;;;;;;9.60;7.43;;;;;;;14.63;92.62;100443.87;1737738;82;21855;-73
2021/08/08 01:36:53;;;;;;;10.20;7.60;;;;;;;14.66;92.60;100445.20;1801383;78;21963;-74
2021/08/08 01:39:22;;;;;;;8.20;7.07;;;;;;;14.69;93.46;100441.39;1799954;78;21791;-73
2021/08/08 01:41:53;;;;;;;12.90;7.67;;;;;;;14.69;93.46;100441.39;1797607;78;21641;-74
2021/08/08 01:44:21;;;;;;;9.67;7.47;;;;;;;14.72;93.66;100435.99;1743608;80;21504;-73
2021/08/08 01:46:52;;;;;;;8.43;7.07;;;;;;;14.77;94.00;100430.53;1801205;78;21408;-73
2021/08/08 01:49:27;;;;;;;7.70;6.40;;;;;;;14.83;95.21;100433.97;1800940;79;21758;-73
2021/08/08 01:51:56;;;;;;;8.40;7.40;;;;;;;14.85;94.98;100433.16;1801407;78;21489;-74
2021/08/08 01:54:24;;;;;;;8.77;7.87;;;;;;;14.87;95.56;100433.13;1802111;78;21904;-74
2021/08/08 01:56:53;;;;;;;10.83;8.30;;;;;;;14.88;95.37;100423.96;1798945;78;21393;-75
2021/08/08 01:59:20;;;;;;;11.87;7.70;;;;;;;14.88;95.37;100423.96;1802884;78;21912;-74
2021/08/08 02:01:48;;;;;;;11.07;8.13;;;;;;;14.93;95.57;100421.73;1802459;78;21733;-73
2021/08/08 02:04:20;;;;;;;10.67;8.53;;;;;;;14.95;95.59;100424.95;1780086;79;22162;-74
2021/08/08 02:06:49;;;;;;;9.53;8.47;;;;;;;14.96;95.79;100425.20;1798906;78;21540;-73
2021/08/08 02:09:20;;;;;;;9.87;8.40;;;;;;;14.97;95.59;100432.16;1800601;78;22223;-72
2021/08/08 02:11:48;;;;;;;10.53;8.30;;;;;;;14.98;95.46;100436.48;1804119;78;21563;-74
2021/08/08 02:14:16;;;;;;;9.07;8.10;;;;;;;14.99;96.09;100442.10;1797689;78;21501;-73
2021/08/08 02:16:45;;;;;;;10.77;8.73;;;;;;;14.99;95.90;100440.76;1800780;78;21686;-74
2021/08/08 02:19:13;;;;;;;9.97;8.63;;;;;;;14.99;95.90;100440.76;1803047;78;21723;-72
2021/08/08 02:21:42;;;;;;;10.77;8.60;;;;;;;14.99;95.87;100438.86;1795995;78;21655;-71
2021/08/08 02:24:09;;;;;;;9.97;8.73;;;;;;;14.98;96.11;100437.82;1803560;78;21602;-73
2021/08/08 02:26:38;;;;;;;9.67;7.90;;;;;;;15.00;96.20;100452.59;1797112;78;21785;-74
2021/08/08 02:29:06;;;;;;;9.93;8.20;;;;;;;14.98;96.60;100450.72;1785562;79;21795;-73
2021/08/08 02:31:38;;;;;;;12.43;8.70;;;;;;;14.98;96.60;100450.72;1780515;78;22080;-73
2021/08/08 02:34:09;;;;;;;10.17;8.73;;;;;;;14.98;96.46;100449.38;1798578;78;21749;-74
2021/08/08 02:36:36;;;;;;;10.97;9.00;;;;;;;14.98;96.61;100454.75;1786581;78;21664;-73
2021/08/08 02:39:03;;;;;;;10.30;9.20;;;;;;;14.99;97.09;100451.52;1798465;78;21827;-72
2021/08/08 02:41:31;;;;;;;10.10;9.10;;;;;;;15.03;96.92;100449.84;1797571;79;21702;-72
2021/08/08 02:43:59;;;;;;;9.83;8.83;;;;;;;15.03;96.92;100449.84;1796572;78;21559;-73
2021/08/08 02:46:26;;;;;;;9.57;8.67;;;;;;;15.04;96.87;100443.39;1738887;81;21738;-73
2021/08/08 02:48:54;;;;;;;10.67;8.73;;;;;;;15.08;96.86;100453.82;1776255;79;21792;-73
2021/08/08 02:51:21;;;;;;;9.60;8.43;;;;;;;15.08;96.86;100453.82;1776656;79;21785;-73
2021/08/08 02:53:48;;;;;;;10.90;8.40;;;;;;;15.10;96.50;100463.73;1801876;78;21540;-72
2021/08/08 02:56:15;;;;;;;8.60;7.57;;;;;;;15.10;96.50;100463.73;1800039;78;21636;-72
2021/08/08 02:58:44;;;;;;;8.57;7.67;;;;;;;15.06;96.62;100455.99;1801481;78;22173;-72
2021/08/08 03:01:11;;;;;;;8.23;7.00;;;;;;;15.08;96.44;100457.86;1801948;78;21668;-71
2021/08/08 03:03:39;;;;;;;8.20;6.30;;;;;;;15.02;95.96;100459.02;1794258;78;21600;-70
2021/08/08 03:06:10;;;;;;;7.77;5.43;;;;;;;15.02;95.96;100459.02;1796554;78;22246;-73
2021/08/08 03:08:39;;;;;;;8.50;6.20;;;;;;;14.94;95.67;100454.28;1800667;78;22147;-74
2021/08/08 03:11:06;;;;;;;8.70;6.40;;;;;;;14.87;95.50;100459.19;1753728;79;21591;-74
2021/08/08 03:13:33;;;;;;;7.43;5.70;;;;;;;14.82;95.40;100454.69;1771298;79;21664;-74
2021/08/08 03:16:01;;;;;;;7.47;5.23;;;;;;;14.81;95.34;100454.44;1801424;78;22208;-74
2021/08/08 03:18:28;;;;;;;6.83;5.57;;;;;;;14.79;95.20;100460.64;1798536;78;21729;-75
2021/08/08 03:20:57;;;;;;;7.23;5.70;;;;;;;14.73;94.94;100453.72;1787198;79;21642;-73
2021/08/08 03:23:24;;;;;;;6.13;5.23;;;;;;;14.75;94.90;100465.80;1803187;78;22130;-74
2021/08/08 03:25:51;;;;;;;9.13;5.40;;;;;;;14.77;94.76;100464.14;1775177;78;22303;-72
2021/08/08 03:28:18;;;;;;;8.30;5.87;;;;;;;14.77;94.60;100470.34;1799500;78;22344;-72
2021/08/08 03:30:45;;;;;;;8.03;5.50;;;;;;;14.77;94.60;100470.34;1802223;78;21607;-72
2021/08/08 03:33:12;;;;;;;6.63;5.03;;;;;;;14.74;94.43;100472.27;1798715;78;21730;-74
2021/08/08 03:35:40;;;;;;;8.17;5.50;;;;;;;14.74;94.32;100469.58;1795388;78;21747;-71
2021/08/08 03:38:08;;;;;;;6.70;5.50;;;;;;;14.74;94.32;100469.58;1797763;78;21998;-72
2021/08/08 03:40:36;;;;;;;7.90;5.20;;;;;;;14.81;94.60;100471.09;1796437;78;21639;-71
2021/08/08 03:43:04;;;;;;;8.53;6.23;;;;;;;14.82;94.64;100468.13;1801272;78;21710;-71
2021/08/08 03:45:31;;;;;;;10.03;7.50;;;;;;;14.87;95.15;100467.26;1800083;78;22222;-71
2021/08/08 03:47:58;;;;;;;10.47;7.23;;;;;;;14.87;95.15;100467.26;1769592;79;21696;-71
2021/08/08 03:50:28;;;;;;;9.40;6.70;;;;;;;14.96;95.21;100472.27;1764751;79;21993;-71
2021/08/08 03:52:56;;;;;;;9.33;7.53;;;;;;;15.05;95.34;100473.23;1802786;78;21637;-71
2021/08/08 03:55:23;;;;;;;11.37;8.27;;;;;;;15.15;95.46;100471.75;1800120;78;21781;-72
2021/08/08 03:57:49;;;;;;;12.67;9.03;;;;;;;15.39;95.95;100473.58;1780597;79;21719;-72
2021/08/08 04:00:18;;;;;;;10.50;8.70;;;;;;;15.39;95.95;100473.58;1778625;79;21685;-72
2021/08/08 04:02:45;;;;;;;10.13;9.03;;;;;;;15.51;95.71;100478.53;1781631;79;21750;-73
2021/08/08 04:05:13;;;;;;;10.70;9.60;;;;;;;15.62;95.69;100474.59;1769451;79;21741;-71
2021/08/08 04:07:40;;;;;;;13.90;9.40;;;;;;;15.72;95.76;100469.08;1768650;79;21713;-72
2021/08/08 04:10:10;;;;;;;9.73;8.73;;;;;;;15.99;95.81;100469.73;1796273;78;22149;-73
2021/08/08 04:12:36;;;;;;;9.57;8.43;;;;;;;15.99;95.81;100469.73;1800788;78;21037;-73
2021/08/08 04:15:06;;;;;;;9.67;8.53;;;;;;;16.28;95.74;100464.64;1802256;78;21576;-73
2021/08/08 04:17:33;;;;;;;9.43;8.27;;;;;;;16.28;95.74;100464.64;1798075;78;21022;-73
2021/08/08 04:20:01;;;;;;;11.20;7.87;;;;;;;16.41;95.37;100463.86;1799018;79;21915;-72
2021/08/08 04:22:28;;;;;;;9.43;7.70;;;;;;;16.53;94.93;100464.18;1795512;78;21089;-72
2021/08/08 04:24:56;;;;;;;10.00;7.47;;;;;;;16.65;94.27;100465.05;1801939;78;21066;-73
2021/08/08 04:27:22;;;;;;;9.60;8.07;;;;;;;16.77;93.55;100464.56;1799128;78;21129;-72
2021/08/08 04:29:49;;;;;;;10.67;8.13;;;;;;;16.86;92.81;100461.41;1801588;78;21077;-72
2021/08/08 04:32:16;;;;;;;10.83;8.07;;;;;;;16.96;92.31;100466.59;1803608;78;21121;-72
2021/08/08 04:34:44;;;;;;;8.90;8.00;;;;;;;17.08;91.81;100462.84;1799992;78;21509;-72
2021/08/08 04:37:11;;;;;;;10.90;8.33;;;;;;;17.19;91.30;100466.66;1798476;78;21077;-72
2021/08/08 04:39:37;;;;;;;9.67;6.73;;;;;;;17.30;90.54;100477.48;1796662;79;21026;-72
2021/08/08 04:42:04;;;;;;;10.13;8.10;;;;;;;17.40;89.70;100475.10;1799382;78;21618;-73
2021/08/08 04:44:33;;;;;;;8.40;7.30;;;;;;;17.47;89.08;100474.95;1800843;78;21124;-74
2021/08/08 04:47:00;;;;;;;9.83;7.70;;;;;;;17.56;88.74;100478.50;1798209;78;21077;-73
2021/08/08 04:49:27;;;;;;;9.87;7.33;;;;;;;17.69;88.46;100478.20;1797829;78;21057;-73
2021/08/08 04:51:54;;;;;;;7.37;6.67;;;;;;;17.81;87.94;100479.84;1801088;78;21430;-73
2021/08/08 04:54:22;;;;;;;8.53;6.63;;;;;;;17.91;87.33;100476.09;1802375;78;21640;-72
2021/08/08 04:56:49;;;;;;;8.93;6.50;;;;;;;18.02;86.80;100472.58;1788755;79;21101;-73
2021/08/08 04:59:15;;;;;;;7.53;6.27;;;;;;;18.13;86.11;100477.98;1770183;79;21010;-73
2021/08/08 05:01:43;;;;;;;7.53;6.20;;;;;;;18.24;85.42;100479.87;1804324;78;20970;-73
2021/08/08 05:04:12;;;;;;;9.47;6.77;;;;;;;18.35;84.76;100479.04;1775735;79;21090;-74
2021/08/08 05:06:39;;;;;;;8.73;6.83;;;;;;;18.45;84.16;100480.91;1750193;79;21089;-74
2021/08/08 05:09:07;;;;;;;7.80;6.43;;;;;;;18.56;83.31;100485.52;1800795;78;21138;-74
2021/08/08 05:11:35;;;;;;;8.07;5.87;;;;;;;18.65;82.19;100484.17;1803195;78;21098;-74
2021/08/08 05:14:02;;;;;;;6.17;5.27;;;;;;;18.74;81.76;100482.34;1799812;78;21062;-68
2021/08/08 05:16:30;;;;;;;7.50;5.73;;;;;;;18.83;81.02;100479.11;1800754;78;21018;-73
2021/08/08 05:19:00;;;;;;;6.93;5.23;;;;;;;18.93;80.01;100482.88;1797977;78;21053;-75
2021/08/08 05:21:31;;;;;;;6.30;5.10;;;;;;;19.03;79.23;100475.58;1795941;78;21900;-74
2021/08/08 05:23:58;;;;;;;8.13;5.40;;;;;;;19.13;78.73;100479.33;1742422;81;21018;-70
2021/08/08 05:26:25;;;;;;;7.00;5.30;;;;;;;19.24;77.43;100480.61;1776095;79;20979;-77
2021/08/08 05:28:52;;;;;;;9.93;5.30;;;;;;;19.33;77.26;100476.01;1774778;79;21038;-74
2021/08/08 05:31:20;;;;;;;7.83;4.97;;;;;;;19.44;76.84;100471.86;1796471;78;21014;-72
2021/08/08 05:33:47;;;;;;;6.87;4.93;;;;;;;19.57;76.51;100468.75;1803641;79;21559;-74
2021/08/08 05:36:14;;;;;;;7.27;4.93;;;;;;;19.68;76.15;100476.05;1803535;78;20983;-73
2021/08/08 05:38:41;;;;;;;6.43;4.40;;;;;;;19.77;75.87;100474.67;1798317;79;21054;-78
2021/08/08 05:41:08;;;;;;;7.67;4.20;;;;;;;19.86;75.29;100474.91;1796640;78;20998;-77
2021/08/08 05:43:35;;;;;;;6.60;4.30;;;;;;;19.96;74.19;100472.98;1802841;78;21485;-75
2021/08/08 05:46:03;;;;;;;7.87;5.23;;;;;;;20.07;73.03;100472.33;1804533;79;21988;-75
2021/08/08 05:48:31;;;;;;;8.43;4.83;;;;;;;20.17;72.25;100475.80;1801013;78;21037;-75
2021/08/08 05:50:58;;;;;;;5.80;4.20;;;;;;;20.25;72.21;100485.27;1797228;78;21132;-75
2021/08/08 05:53:26;;;;;;;7.17;3.67;;;;;;;20.36;71.95;100494.64;1795709;78;21050;-77
2021/08/08 05:55:53;;;;;;;11.73;4.27;;;;;;;20.46;70.52;100492.70;1803706;78;21538;-74
2021/08/08 05:58:20;;;;;;;7.67;4.10;;;;;;;20.55;69.25;100490.79;1802469;78;21518;-72
2021/08/08 06:00:47;;;;;;;9.33;3.83;;;;;;;20.62;68.49;100504.64;1795280;78;20952;-75
2021/08/08 06:03:14;;;;;;;8.33;4.13;;;;;;;20.69;67.58;100499.50;1783588;78;21175;-76
2021/08/08 06:05:42;;;;;;;10.70;4.27;;;;;;;20.75;66.98;100493.33;1803839;78;20991;-77
2021/08/08 06:08:08;;;;;;;8.37;4.43;;;;;;;20.83;66.37;100486.52;1803351;78;21041;-75
2021/08/08 06:10:35;;;;;;;9.57;3.83;;;;;;;20.92;64.90;100492.44;1798391;79;22009;-76
2021/08/08 06:13:02;;;;;;;9.47;3.60;;;;;;;20.93;64.17;100489.98;1794741;78;21540;-74
2021/08/08 06:15:30;;;;;;;5.37;3.20;;;;;;;20.95;63.92;100491.79;1771735;81;21061;-74
2021/08/08 06:17:58;;;;;;;6.23;2.77;;;;;;;21.01;64.07;100499.98;1800258;78;21062;-78
2021/08/08 06:20:26;;;;;;;6.27;2.63;;;;;;;21.11;62.76;100509.11;1799353;78;21601;-74
2021/08/08 06:22:54;;;;;;;4.20;2.20;;;;;;;21.19;61.81;100504.73;1802790;78;21144;-74
2021/08/08 06:25:21;;;;;;;6.70;2.50;;;;;;;21.26;61.12;100500.39;1800608;78;20967;-76
2021/08/08 06:27:47;;;;;;;11.97;2.73;;;;;;;21.36;61.18;100503.31;1799955;79;21042;-77
2021/08/08 06:30:14;;;;;;;4.90;2.40;;;;;;;21.43;60.40;100504.93;1798194;78;21026;-75
2021/08/08 06:32:42;;;;;;;4.37;2.37;;;;;;;21.52;60.97;100500.80;1800086;78;21544;-77
2021/08/08 06:35:10;;;;;;;3.43;2.00;;;;;;;21.61;60.26;100500.70;1799058;79;21581;-76
2021/08/08 06:37:40;;;;;;;4.60;2.57;;;;;;;21.69;59.67;100505.30;1802008;78;21038;-74
2021/08/08 06:40:08;;;;;;;6.13;2.50;;;;;;;21.70;59.08;100507.66;1798346;78;21026;-73
2021/08/08 06:42:35;;;;;;;4.30;2.47;;;;;;;21.73;59.05;100509.72;1769047;78;21057;-74
2021/08/08 06:45:04;;;;;;;3.87;2.10;;;;;;;21.85;59.12;100506.81;1801165;78;21023;-75
2021/08/08 06:47:31;;;;;;;5.13;2.70;;;;;;;21.96;58.92;100511.52;1777106;79;21270;-75
2021/08/08 06:49:58;;;;;;;5.40;2.60;;;;;;;22.06;57.88;100513.59;1792745;78;21018;-75
2021/08/08 06:52:26;;;;;;;5.80;2.67;;;;;;;22.11;57.36;100518.27;1796439;79;21081;-74
2021/08/08 06:54:53;;;;;;;5.80;3.10;;;;;;;22.17;57.30;100525.08;1797960;78;21090;-76
2021/08/08 06:57:25;;;;;;;7.47;3.30;;;;;;;22.22;56.87;100525.45;1773843;78;21006;-76
2021/08/08 06:59:52;;;;;;;6.07;2.60;;;;;;;22.27;57.34;100521.14;1798772;78;21121;-75
2021/08/08 07:02:19;;;;;;;4.80;3.00;;;;;;;22.38;57.48;100518.23;1798359;78;21094;-75
2021/08/08 07:04:47;;;;;;;5.17;2.90;;;;;;;22.48;55.79;100523.81;1801283;78;21049;-74
2021/08/08 07:07:17;;;;;;;7.20;3.30;;;;;;;22.51;56.29;100520.41;1801227;78;20996;-76
2021/08/08 07:09:45;;;;;;;7.03;3.42;;;;;;;22.57;55.73;100514.95;1777613;78;21057;-78
2021/08/08 07:12:12;;;;;;;5.53;3.00;;;;;;;22.63;55.10;100516.33;1778354;79;21832;-78
2021/08/08 07:14:43;;;;;;;7.00;3.17;;;;;;;22.69;55.16;100521.78;1802869;78;21066;-75
2021/08/08 07:17:10;;;;;;;6.83;2.90;;;;;;;22.78;55.24;100529.06;1801545;79;21073;-74
2021/08/08 07:19:36;;;;;;;5.70;3.10;;;;;;;22.82;54.97;100526.66;1794365;78;21062;-76
2021/08/08 07:22:05;;;;;;;6.97;2.83;;;;;;;22.83;54.18;100519.28;1770100;79;21489;-75
2021/08/08 07:24:33;;;;;;;7.47;3.23;;;;;;;22.79;53.89;100520.53;1802576;78;21483;-77
2021/08/08 07:27:00;;;;;;;6.47;3.03;;;;;;;22.83;54.33;100526.88;1797977;78;21058;-76
2021/08/08 07:29:27;;;;;;;5.47;3.20;;;;;;;22.93;53.39;100537.92;1801668;78;21003;-75
2021/08/08 07:31:55;;;;;;;7.13;3.23;;;;;;;22.97;53.55;100532.05;1798532;78;21092;-73
2021/08/08 07:34:22;;;;;;;4.23;2.53;;;;;;;23.03;53.07;100536.10;1802006;78;20998;-74
2021/08/08 07:36:49;;;;;;;7.13;2.97;;;;;;;23.08;53.17;100531.80;1801200;78;21095;-72
2021/08/08 07:39:15;;;;;;;4.50;2.13;;;;;;;23.16;52.20;100539.07;1794807;78;21082;-74
2021/08/08 07:41:43;;;;;;;3.90;2.13;;;;;;;23.22;51.08;100544.27;1797117;78;21031;-76
2021/08/08 07:44:10;;;;;;;5.40;2.50;;;;;;;23.26;51.39;100547.89;1802465;78;21172;-76
2021/08/08 07:46:38;;;;;;;6.03;2.50;;;;;;;23.29;50.44;100545.27;1800306;78;21596;-75
2021/08/08 07:49:06;;;;;;;4.50;2.43;;;;;;;23.35;50.54;100547.20;1803289;79;21483;-70
2021/08/08 07:51:34;;;;;;;3.87;2.33;;;;;;;23.48;50.51;100547.98;1798306;78;21343;-72
2021/08/08 07:54:00;;;;;;;4.93;2.30;;;;;;;23.56;50.50;100552.48;1770911;79;21046;-71
2021/08/08 07:56:27;;;;;;;4.10;2.07;;;;;;;23.59;50.40;100543.08;1799412;78;21490;-72
2021/08/08 07:58:55;;;;;;;4.13;2.20;;;;;;;23.67;50.15;100542.70;1801505;78;21708;-74
2021/08/08 08:01:22;;;;;;;3.60;1.90;;;;;;;23.73;49.98;100539.20;1798957;78;21070;-72
2021/08/08 08:03:49;;;;;;;5.47;2.63;;;;;;;23.77;50.34;100546.91;1798878;78;21030;-70
2021/08/08 08:06:15;;;;;;;4.37;2.60;;;;;;;23.79;49.79;100540.52;1801050;78;21017;-70
2021/08/08 08:08:44;;;;;;;5.37;2.10;;;;;;;23.86;49.71;100551.08;1802008;78;21002;-73
2021/08/08 08:11:11;;;;;;;4.93;2.07;;;;;;;23.92;49.48;100544.00;1797735;78;21069;-75
2021/08/08 08:13:40;;;;;;;4.67;2.30;;;;;;;23.97;48.95;100547.28;1782284;79;21126;-74
2021/08/08 08:16:09;;;;;;;4.30;2.03;;;;;;;23.98;49.39;100534.42;1772541;79;21326;-77
2021/08/08 08:18:35;;;;;;;3.93;2.20;;;;;;;24.01;49.31;100533.16;1766955;80;21078;-74
2021/08/08 08:21:02;;;;;;;2.80;2.00;;;;;;;24.03;49.48;100531.46;1784938;78;21085;-75
2021/08/08 08:23:28;;;;;;;4.40;2.10;;;;;;;24.08;49.89;100536.08;1799161;78;21070;-73
2021/08/08 08:25:58;;;;;;;3.50;2.07;;;;;;;24.14;49.50;100523.55;1791175;79;21204;-72
2021/08/08 08:28:29;;;;;;;3.30;1.97;;;;;;;24.19;48.85;100524.67;1787776;79;20990;-72
2021/08/08 08:30:57;;;;;;;3.27;2.10;;;;;;;24.20;48.90;100518.07;1736218;81;21038;-74
2021/08/08 08:33:23;;;;;;;3.70;2.17;;;;;;;24.27;48.77;100521.77;1794099;78;21119;-71
2021/08/08 08:35:50;;;;;;;3.33;1.83;;;;;;;24.36;48.81;100520.82;1797545;79;21216;-70
2021/08/08 08:38:18;;;;;;;3.57;2.00;;;;;;;24.45;48.09;100516.81;1786920;78;21151;-75
2021/08/08 08:40:47;;;;;;;3.83;1.80;;;;;;;24.51;47.76;100515.95;1796795;78;21057;-73
2021/08/08 08:43:14;;;;;;;3.83;1.63;;;;;;;24.52;47.21;100523.02;1797644;78;21110;-73
2021/08/08 08:45:44;;;;;;;2.60;1.70;;;;;;;24.57;46.37;100516.70;1798064;79;21069;-73
2021/08/08 08:48:11;;;;;;;3.03;1.60;;;;;;;24.68;46.64;100514.80;1770941;78;21089;-73
2021/08/08 08:50:38;;;;;;;3.10;1.90;;;;;;;24.82;46.54;100513.01;1796446;78;21064;-72
2021/08/08 08:53:07;;;;;;;3.00;1.60;;;;;;;24.87;46.30;100503.95;1793445;78;21081;-73
2021/08/08 08:55:34;;;;;;;2.53;1.60;;;;;;;24.94;45.24;100506.87;1798511;78;21038;-73
2021/08/08 08:58:00;;;;;;;3.17;1.60;;;;;;;24.96;43.52;100503.77;1793214;78;21042;-73
2021/08/08 09:00:27;;;;;;;5.80;1.80;;;;;;;24.95;44.63;100500.25;1775604;79;21055;-73
2021/08/08 09:02:54;;;;;;;2.30;1.70;;;;;;;24.93;44.86;100498.43;1796405;78;21398;-70
2021/08/08 09:05:22;;;;;;;4.70;2.13;;;;;;;24.89;44.72;100488.00;1800569;78;21026;-71
2021/08/08 09:07:49;;;;;;;2.80;1.63;;;;;;;24.96;45.54;100490.11;1794985;78;21584;-73
2021/08/08 09:10:16;;;;;;;3.17;1.57;;;;;;;24.98;44.25;100493.28;1790109;78;21133;-70
2021/08/08 09:12:57;;;;;;;2.67;1.60;;;;;;;24.94;44.64;100487.74;1799122;79;21022;-71
2021/08/08 09:15:38;;;;;;;3.23;1.70;;;;;;;25.02;45.04;100491.42;1772806;79;21180;-69
2021/08/08 09:18:20;;;;;;;3.80;1.70;;;;;;;25.12;43.56;100486.00;1794146;78;21468;-71
2021/08/08 09:20:55;;;;;;;4.67;2.00;;;;;;;25.17;43.80;100482.97;1798172;78;21339;-72
2021/08/08 09:23:25;;;;;;;3.40;2.27;;;;;;;25.23;44.27;100485.65;1798837;79;21037;-72
2021/08/08 09:25:56;;;;;;;4.17;2.30;;;;;;;25.35;44.22;100484.16;1745848;79;21002;-73
2021/08/08 09:28:30;;;;;;;3.77;2.52;;;;;;;25.46;43.55;100489.26;1797477;78;22038;-71
2021/08/08 09:31:00;;;;;;;3.97;2.53;;;;;;;25.56;42.60;100485.73;1799630;78;21525;-73
2021/08/08 09:33:27;;;;;;;4.47;2.50;;;;;;;25.58;42.21;100486.19;1798024;78;21042;-72
2021/08/08 09:35:56;;;;;;;3.63;2.37;;;;;;;25.58;42.24;100480.71;1788073;79;21074;-73
2021/08/08 09:38:22;;;;;;;5.07;2.27;;;;;;;25.61;41.94;100476.68;1768133;79;21089;-73
2021/08/08 09:41:00;;;;;;;5.60;2.53;;;;;;;25.66;42.10;100478.32;1774378;79;21447;-73
2021/08/08 09:43:28;;;;;;;4.60;2.57;;;;;;;25.78;42.24;100485.59;1799273;78;21109;-75
2021/08/08 09:45:55;;;;;;;4.63;2.60;;;;;;;25.83;41.08;100479.30;1801998;78;21616;-74
2021/08/08 09:48:23;;;;;;;6.57;2.60;;;;;;;25.86;41.20;100484.02;1802970;79;21572;-72
2021/08/08 09:50:51;;;;;;;5.47;2.80;;;;;;;25.90;41.53;100476.69;1775481;79;21611;-71
2021/08/08 09:53:19;;;;;;;6.83;2.93;;;;;;;25.95;40.50;100479.69;1747951;78;21536;-70
2021/08/08 09:55:46;;;;;;;6.47;3.00;;;;;;;25.99;42.27;100479.17;1799310;78;21097;-69
2021/08/08 09:58:20;;;;;;;6.47;2.90;;;;;;;25.93;43.07;100486.12;1801574;78;21667;-71
2021/08/08 10:00:46;;;;;;;5.40;2.60;;;;;;;25.88;43.05;100477.61;1798041;78;21022;-71
2021/08/08 10:03:14;;;;;;;4.17;2.50;;;;;;;25.83;43.01;100468.90;1792315;78;21049;-72
2021/08/08 10:05:43;;;;;;;4.97;2.50;;;;;;;25.77;43.38;100473.86;1793030;78;21487;-75
2021/08/08 10:08:17;;;;;;;4.40;2.40;;;;;;;25.76;43.08;100483.20;1786306;78;21018;-72
2021/08/08 10:10:48;;;;;;;6.00;2.63;;;;;;;25.76;42.70;100489.26;1791169;78;21073;-72
2021/08/08 10:13:46;;;;;;;4.33;1.87;;;;;;;25.75;41.82;100487.10;1797799;79;21140;-71
2021/08/08 10:16:14;;;;;;;4.67;2.10;;;;;;;25.74;40.63;100484.16;1796412;78;21111;-70
2021/08/08 10:18:44;;;;;;;4.03;2.30;;;;;;;25.73;41.64;100486.11;1799108;79;21102;-71
2021/08/08 10:21:12;;;;;;;5.35;2.40;;;;;;;25.81;41.63;100486.27;1800263;78;21037;-73
2021/08/08 10:23:39;;;;;;;4.87;2.70;;;;;;;25.91;41.66;100490.57;1772781;79;21066;-72
2021/08/08 10:26:06;;;;;;;3.77;2.00;;;;;;;26.00;41.50;100484.87;1799183;78;21014;-71
2021/08/08 10:28:33;;;;;;;3.37;1.93;;;;;;;26.12;40.13;100484.69;1800243;79;21029;-72
2021/08/08 10:31:01;;;;;;;3.90;2.17;;;;;;;26.17;39.37;100490.45;1795228;78;21506;-72
2021/08/08 10:33:28;;;;;;;3.67;2.10;;;;;;;26.12;38.98;100481.95;1799377;79;21577;-71
2021/08/08 10:35:54;;;;;;;4.00;1.93;;;;;;;26.13;37.71;100482.18;1796615;78;21028;-71
2021/08/08 10:38:21;;;;;;;3.77;2.20;;;;;;;26.15;38.29;100481.22;1799653;79;22155;-72
2021/08/08 10:40:48;;;;;;;2.53;1.60;;;;;;;26.20;38.56;100483.67;1798516;78;21014;-73
2021/08/08 10:43:28;;;;;;;4.40;2.40;;;;;;;26.22;36.29;100482.50;1739298;81;21502;-72
2021/08/08 10:46:07;;;;;;;4.28;1.80;;;;;;;26.18;36.34;100480.50;1793629;78;21085;-70
2021/08/08 10:48:40;;;;;;;3.58;2.00;;;;;;;26.19;35.73;100475.25;1800071;78;21085;-69
2021/08/08 10:51:24;;;;;;;4.55;1.90;;;;;;;26.18;34.95;100492.81;1799832;78;21061;-71
2021/08/08 10:54:08;;;;;;;4.20;1.97;;;;;;;26.16;35.22;100480.09;1792654;79;21486;-72
2021/08/08 10:56:48;;;;;;;4.97;2.40;;;;;;;26.18;36.53;100475.60;1795455;78;22221;-70
2021/08/08 10:59:20;;;;;;;4.13;2.60;;;;;;;26.21;35.80;100476.24;1799672;78;21105;-72
2021/08/08 11:02:07;;;;;;;4.43;2.30;;;;;;;26.30;36.35;100480.91;1763246;79;21075;-70
2021/08/08 11:04:34;;;;;;;3.77;2.00;;;;;;;26.41;34.75;100483.81;1796458;78;21037;-71
2021/08/08 11:07:04;;;;;;;4.20;2.07;;;;;;;26.47;34.05;100486.46;1798437;78;21002;-72
2021/08/08 11:09:35;;;;;;;4.03;2.37;;;;;;;26.48;33.11;100483.17;1777962;79;21780;-72
2021/08/08 11:12:02;;;;;;;4.22;2.60;;;;;;;26.48;34.56;100486.69;1780401;79;21660;-72
2021/08/08 11:14:29;;;;;;;6.60;2.80;;;;;;;26.49;35.14;100486.11;1773493;79;21089;-74
2021/08/08 11:17:07;;;;;;;5.93;3.20;;;;;;;26.44;35.18;100483.08;1776093;79;21061;-72
2021/08/08 11:19:42;;;;;;;4.43;2.10;;;;;;;26.45;34.88;100480.55;1774905;79;21085;-72
2021/08/08 11:22:15;;;;;;;5.47;1.90;;;;;;;26.43;33.75;100475.45;1797197;78;21497;-72
2021/08/08 11:24:44;;;;;;;3.57;1.80;;;;;;;26.49;33.48;100468.31;1800575;78;21015;-72
2021/08/08 11:27:11;;;;;;;3.27;1.87;;;;;;;26.59;31.73;100469.08;1776480;79;21061;-72
2021/08/08 11:29:38;;;;;;;5.03;1.90;;;;;;;26.66;31.08;100473.30;1775297;79;21007;-71